Time;durP1;ratioP1;P1;durP2;ratioP2;P2;SDS_P1;SDS_P2;PMS_P1;PMS_P2;Temp;Humidity;BMP_temperature;BMP_pressure;BME280_temperature;BME280_humidity;BME280_pressure;Samples;Min_cycle;Max_cycle;Signal;HPM_P1;HPM_P2
2022/03/10 00:01:31;;;;;;;7.25;3.22;;;;;;;;;;5051632;28;20488;-87
2022/03/10 00:03:57;;;;;;;7.93;3.10;;;;;;;;;;5050056;28;20584;-85
2022/03/10 00:06:23;;;;;;;5.60;3.30;;;;;;;;;;5052040;28;20489;-88
2022/03/10 00:08:49;;;;;;;7.70;3.10;;;;;;;;;;5049985;28;20029;-89
2022/03/10 00:11:16;;;;;;;5.18;2.80;;;;;;;;;;5051119;28;20391;-87
2022/03/10 00:13:42;;;;;;;8.27;3.17;;;;;;;;;;5049692;28;20061;-87
2022/03/10 00:16:08;;;;;;;7.85;3.13;;;;;;;;;;5051016;28;20515;-87
2022/03/10 00:18:34;;;;;;;5.90;2.88;;;;;;;;;;5051094;28;20116;-87
2022/03/10 00:21:00;;;;;;;7.03;3.08;;;;;;;;;;5050921;28;20044;-87
2022/03/10 00:23:26;;;;;;;6.70;3.20;;;;;;;;;;5051621;28;20029;-89
2022/03/10 00:25:54;;;;;;;5.88;3.17;;;;;;;;;;5050909;28;20501;-88
2022/03/10 00:28:20;;;;;;;7.70;3.10;;;;;;;;;;5049429;28;20408;-88
2022/03/10 00:30:46;;;;;;;6.15;2.60;;;;;;;;;;5050865;28;20025;-87
2022/03/10 00:33:12;;;;;;;5.65;2.83;;;;;;;;;;5050801;28;20028;-86
2022/03/10 00:35:39;;;;;;;7.22;2.80;;;;;;;;;;5050061;28;20021;-88
2022/03/10 00:38:05;;;;;;;6.97;2.75;;;;;;;;;;5049289;28;20127;-88
2022/03/10 00:40:31;;;;;;;8.07;3.60;;;;;;;;;;5050542;28;20021;-87
2022/03/10 00:42:57;;;;;;;5.60;2.60;;;;;;;;;;5049956;28;20389;-87
2022/03/10 00:45:25;;;;;;;8.85;3.00;;;;;;;;;;5050446;28;20473;-86
2022/03/10 00:47:51;;;;;;;5.75;2.67;;;;;;;;;;5050291;28;20049;-86
2022/03/10 00:50:17;;;;;;;6.28;2.72;;;;;;;;;;5050333;28;20400;-87
2022/03/10 00:52:45;;;;;;;7.70;2.78;;;;;;;;;;5050348;28;20027;-87
2022/03/10 00:55:12;;;;;;;9.98;3.47;;;;;;;;;;5050299;28;20025;-87
2022/03/10 00:57:39;;;;;;;5.65;3.15;;;;;;;;;;5050200;28;20461;-86
2022/03/10 01:00:05;;;;;;;5.68;2.60;;;;;;;;;;5050194;28;20032;-86
2022/03/10 01:02:32;;;;;;;3.75;2.50;;;;;;;;;;5048731;28;20047;-86
2022/03/10 01:04:58;;;;;;;3.95;2.53;;;;;;;;;;5049423;28;20033;-87
2022/03/10 01:07:24;;;;;;;7.40;2.70;;;;;;;;;;5050041;28;20021;-87
2022/03/10 01:09:51;;;;;;;6.25;2.80;;;;;;;;;;5048772;28;20143;-86
2022/03/10 01:12:17;;;;;;;6.40;2.40;;;;;;;;;;5049966;28;20049;-87
2022/03/10 01:14:43;;;;;;;5.72;2.75;;;;;;;;;;5049840;28;20443;-87
2022/03/10 01:17:09;;;;;;;6.95;2.58;;;;;;;;;;5049700;28;20102;-86
2022/03/10 01:19:35;;;;;;;4.13;2.53;;;;;;;;;;5049754;28;20094;-86
2022/03/10 01:22:02;;;;;;;7.22;2.42;;;;;;;;;;5049829;28;20024;-86
2022/03/10 01:24:28;;;;;;;5.20;2.53;;;;;;;;;;5050346;28;20083;-86
2022/03/10 01:26:54;;;;;;;4.68;2.40;;;;;;;;;;5048571;28;20028;-86
2022/03/10 01:29:21;;;;;;;8.15;3.22;;;;;;;;;;5050001;28;20432;-86
2022/03/10 01:31:47;;;;;;;10.15;3.05;;;;;;;;;;5050005;28;20051;-86
2022/03/10 01:34:13;;;;;;;3.17;2.30;;;;;;;;;;5049604;28;20074;-86
2022/03/10 01:36:40;;;;;;;6.43;2.83;;;;;;;;;;5049589;28;20021;-87
2022/03/10 01:39:06;;;;;;;5.60;3.05;;;;;;;;;;5051053;28;20021;-86
2022/03/10 01:41:32;;;;;;;3.85;2.78;;;;;;;;;;5051724;28;20535;-85
2022/03/10 01:43:58;;;;;;;6.22;2.85;;;;;;;;;;5051800;28;20126;-86
2022/03/10 01:46:25;;;;;;;4.15;2.13;;;;;;;;;;5048398;28;20027;-86
2022/03/10 01:48:51;;;;;;;5.13;2.75;;;;;;;;;;5049266;28;20013;-87
2022/03/10 01:51:17;;;;;;;6.97;2.40;;;;;;;;;;5049045;28;20032;-87
2022/03/10 01:53:44;;;;;;;4.57;2.42;;;;;;;;;;5047919;28;20025;-86
2022/03/10 01:56:10;;;;;;;3.90;2.60;;;;;;;;;;5049269;28;20033;-87
2022/03/10 01:58:37;;;;;;;6.32;2.53;;;;;;;;;;5047755;28;20025;-88
2022/03/10 02:01:04;;;;;;;5.10;2.75;;;;;;;;;;5049446;28;20028;-87
2022/03/10 02:03:30;;;;;;;5.72;2.58;;;;;;;;;;5048426;28;20051;-87
2022/03/10 02:05:56;;;;;;;5.78;2.45;;;;;;;;;;5047764;28;20374;-87
2022/03/10 02:11:08;;;;;;;4.80;2.50;;;;;;;;;;5049158;28;20035;-87
2022/03/10 02:13:34;;;;;;;5.18;2.70;;;;;;;;;;5048454;28;20512;-86
2022/03/10 02:18:44;;;;;;;5.18;2.60;;;;;;;;;;5048904;28;20112;-87
2022/03/10 02:21:11;;;;;;;6.40;2.60;;;;;;;;;;5048880;28;20025;-88
2022/03/10 02:23:37;;;;;;;7.82;2.85;;;;;;;;;;5048728;28;20025;-86
2022/03/10 02:26:03;;;;;;;5.28;2.60;;;;;;;;;;5048377;28;20151;-86
2022/03/10 02:28:29;;;;;;;4.22;2.60;;;;;;;;;;5047526;28;20070;-87
2022/03/10 02:30:55;;;;;;;5.32;2.50;;;;;;;;;;5048708;28;20029;-87
2022/03/10 02:33:21;;;;;;;5.60;2.40;;;;;;;;;;5048775;28;20021;-86
2022/03/10 02:35:47;;;;;;;5.53;2.60;;;;;;;;;;5048661;28;20025;-86
2022/03/10 02:38:18;;;;;;;8.90;2.60;;;;;;;;;;5048614;28;20108;-88
2022/03/10 02:40:44;;;;;;;6.43;2.78;;;;;;;;;;5043330;28;20404;-87
2022/03/10 02:43:10;;;;;;;5.55;2.50;;;;;;;;;;5028712;28;20025;-87
2022/03/10 02:45:36;;;;;;;4.63;2.45;;;;;;;;;;5027529;28;20030;-87
2022/03/10 02:48:03;;;;;;;6.25;2.47;;;;;;;;;;5028353;28;20032;-88
2022/03/10 02:50:29;;;;;;;5.82;2.75;;;;;;;;;;5028550;28;20041;-87
2022/03/10 02:52:55;;;;;;;5.72;2.63;;;;;;;;;;5028618;28;20101;-87
2022/03/10 02:55:21;;;;;;;6.40;2.40;;;;;;;;;;5033498;28;20032;-87
2022/03/10 02:57:48;;;;;;;7.00;2.60;;;;;;;;;;5038894;28;20022;-87
2022/03/10 03:00:14;;;;;;;7.00;2.30;;;;;;;;;;5032152;28;20041;-87
2022/03/10 03:02:41;;;;;;;3.75;2.50;;;;;;;;;;5032439;28;20018;-87
2022/03/10 03:05:07;;;;;;;4.15;2.60;;;;;;;;;;5031336;28;20402;-86
2022/03/10 03:07:34;;;;;;;8.52;2.88;;;;;;;;;;5033099;28;20017;-87
2022/03/10 03:10:00;;;;;;;4.75;2.67;;;;;;;;;;5032302;28;20474;-87
2022/03/10 03:12:27;;;;;;;6.40;2.63;;;;;;;;;;5030998;28;20274;-87
2022/03/10 03:14:54;;;;;;;6.78;2.83;;;;;;;;;;5030985;28;20026;-88
2022/03/10 03:17:20;;;;;;;6.00;2.50;;;;;;;;;;5032187;28;20529;-87
2022/03/10 03:19:46;;;;;;;8.45;2.90;;;;;;;;;;5032226;28;20033;-87
2022/03/10 03:22:12;;;;;;;6.55;2.83;;;;;;;;;;5032095;28;20022;-88
2022/03/10 03:24:38;;;;;;;6.70;2.70;;;;;;;;;;5032775;28;20107;-87
2022/03/10 03:27:04;;;;;;;6.07;2.65;;;;;;;;;;5048523;28;20021;-87
2022/03/10 03:29:30;;;;;;;9.73;2.70;;;;;;;;;;5058467;28;20481;-87
2022/03/10 03:31:56;;;;;;;11.52;2.75;;;;;;;;;;5051935;28;20057;-86
2022/03/10 03:34:22;;;;;;;3.65;2.47;;;;;;;;;;5049902;28;20481;-86
2022/03/10 03:36:48;;;;;;;3.47;2.50;;;;;;;;;;5051910;28;20021;-86
2022/03/10 03:39:15;;;;;;;5.53;3.00;;;;;;;;;;5051506;28;20028;-86
2022/03/10 03:41:41;;;;;;;7.63;2.78;;;;;;;;;;5052062;28;20017;-86
2022/03/10 03:44:07;;;;;;;6.00;2.95;;;;;;;;;;5052562;28;20041;-86
2022/03/10 03:46:33;;;;;;;12.07;2.85;;;;;;;;;;5065512;28;20024;-89
2022/03/10 03:49:00;;;;;;;5.55;2.97;;;;;;;;;;5072910;28;20546;-86
2022/03/10 03:51:26;;;;;;;5.43;2.97;;;;;;;;;;5070154;28;20062;-87
2022/03/10 03:53:52;;;;;;;7.07;3.25;;;;;;;;;;5072518;28;20027;-87
2022/03/10 03:56:18;;;;;;;6.35;3.50;;;;;;;;;;5061641;28;20029;-88
2022/03/10 03:58:45;;;;;;;8.88;4.20;;;;;;;;;;5054537;28;20116;-91
2022/03/10 04:01:11;;;;;;;6.10;3.63;;;;;;;;;;5075047;28;20017;-86
2022/03/10 04:03:37;;;;;;;7.15;3.65;;;;;;;;;;5070754;28;20033;-86
2022/03/10 04:06:04;;;;;;;8.40;4.07;;;;;;;;;;5056355;28;20065;-88
2022/03/10 04:08:30;;;;;;;6.07;3.60;;;;;;;;;;5051567;28;20216;-85
2022/03/10 04:10:56;;;;;;;10.25;3.53;;;;;;;;;;5053135;28;20028;-86
2022/03/10 04:13:23;;;;;;;4.80;3.78;;;;;;;;;;5059643;28;20079;-91
2022/03/10 04:15:49;;;;;;;5.40;3.20;;;;;;;;;;5056213;28;20029;-87
2022/03/10 04:18:16;;;;;;;9.40;3.70;;;;;;;;;;5069801;28;20029;-88
2022/03/10 04:20:43;;;;;;;6.07;3.58;;;;;;;;;;5079816;28;20045;-87
2022/03/10 04:23:10;;;;;;;12.65;3.75;;;;;;;;;;5077419;28;20025;-86
2022/03/10 04:25:36;;;;;;;8.02;3.63;;;;;;;;;;5073917;28;20043;-86
2022/03/10 04:28:02;;;;;;;8.45;3.60;;;;;;;;;;5072854;28;20025;-87
2022/03/10 04:30:29;;;;;;;8.55;3.60;;;;;;;;;;5072192;28;20068;-88
2022/03/10 04:32:55;;;;;;;10.40;3.50;;;;;;;;;;5071549;28;20020;-87
2022/03/10 04:35:21;;;;;;;10.18;3.65;;;;;;;;;;5069862;28;20035;-86
2022/03/10 04:37:51;;;;;;;7.28;3.60;;;;;;;;;;5071413;28;20044;-85
2022/03/10 04:40:17;;;;;;;7.72;3.70;;;;;;;;;;5069636;28;20029;-94
2022/03/10 04:42:43;;;;;;;5.85;3.38;;;;;;;;;;5070268;28;20048;-85
2022/03/10 04:45:09;;;;;;;5.57;3.22;;;;;;;;;;5071402;28;20032;-85
2022/03/10 04:47:36;;;;;;;10.07;3.53;;;;;;;;;;5070212;28;20497;-89
2022/03/10 04:50:03;;;;;;;6.35;3.60;;;;;;;;;;5070345;28;20047;-91
2022/03/10 04:52:30;;;;;;;6.97;3.47;;;;;;;;;;5061085;28;20052;-87
2022/03/10 04:54:56;;;;;;;6.82;3.33;;;;;;;;;;5050384;28;20511;-88
2022/03/10 04:57:22;;;;;;;6.22;3.60;;;;;;;;;;5050124;28;20021;-87
2022/03/10 04:59:49;;;;;;;7.82;3.70;;;;;;;;;;5049244;28;20028;-86
2022/03/10 05:02:15;;;;;;;5.50;3.60;;;;;;;;;;5050244;28;20029;-87
2022/03/10 05:04:41;;;;;;;8.27;3.70;;;;;;;;;;5051416;28;20489;-87
2022/03/10 05:07:08;;;;;;;6.38;3.70;;;;;;;;;;5049980;28;20052;-88
2022/03/10 05:09:34;;;;;;;6.28;3.67;;;;;;;;;;5050425;28;20074;-86
2022/03/10 05:12:00;;;;;;;5.63;3.88;;;;;;;;;;5049129;28;20025;-87
2022/03/10 05:14:26;;;;;;;6.57;3.80;;;;;;;;;;5049293;28;20029;-87
2022/03/10 05:16:53;;;;;;;6.55;4.05;;;;;;;;;;5050250;28;20096;-87
2022/03/10 05:19:19;;;;;;;9.23;3.70;;;;;;;;;;5048403;28;20024;-86
2022/03/10 05:21:45;;;;;;;8.25;4.30;;;;;;;;;;5049762;28;20104;-86
2022/03/10 05:24:12;;;;;;;6.07;3.83;;;;;;;;;;5049347;28;20119;-87
2022/03/10 05:26:38;;;;;;;7.28;4.00;;;;;;;;;;5050147;28;20056;-87
2022/03/10 05:29:04;;;;;;;10.52;4.32;;;;;;;;;;5049813;28;20512;-87
2022/03/10 05:31:30;;;;;;;7.47;4.13;;;;;;;;;;5050358;28;20056;-90
2022/03/10 05:33:57;;;;;;;6.72;4.40;;;;;;;;;;5049753;28;20035;-92
2022/03/10 05:36:23;;;;;;;10.68;4.40;;;;;;;;;;5048907;28;20036;-89
2022/03/10 05:38:49;;;;;;;10.75;6.53;;;;;;;;;;5049379;28;20024;-93
2022/03/10 05:41:15;;;;;;;8.25;5.25;;;;;;;;;;5049246;28;20075;-92
2022/03/10 05:43:41;;;;;;;13.95;5.97;;;;;;;;;;5050814;28;20025;-91
2022/03/10 05:46:07;;;;;;;9.55;5.07;;;;;;;;;;5050357;28;20032;-92
2022/03/10 05:48:33;;;;;;;11.63;5.47;;;;;;;;;;5049093;28;20029;-90
2022/03/10 05:51:00;;;;;;;6.80;5.07;;;;;;;;;;5048515;28;20031;-89
2022/03/10 05:53:26;;;;;;;11.73;5.90;;;;;;;;;;5049077;28;20120;-90
2022/03/10 05:55:52;;;;;;;10.48;5.95;;;;;;;;;;5048913;28;20106;-89
2022/03/10 05:58:18;;;;;;;8.57;5.72;;;;;;;;;;5049115;28;20021;-91
2022/03/10 06:00:45;;;;;;;8.57;5.38;;;;;;;;;;5051323;28;20427;-91
2022/03/10 06:03:12;;;;;;;11.85;6.28;;;;;;;;;;5050991;28;20108;-92
2022/03/10 06:05:38;;;;;;;10.20;6.35;;;;;;;;;;5050344;28;20032;-90
2022/03/10 06:08:06;;;;;;;10.30;6.20;;;;;;;;;;5041236;28;20016;-92
2022/03/10 06:10:33;;;;;;;10.45;6.28;;;;;;;;;;5036412;28;20030;-90
2022/03/10 06:12:59;;;;;;;8.50;6.20;;;;;;;;;;5043925;28;20028;-93
2022/03/10 06:15:25;;;;;;;9.52;6.38;;;;;;;;;;5047841;28;20440;-90
2022/03/10 06:17:51;;;;;;;10.88;6.78;;;;;;;;;;5048088;28;20078;-91
2022/03/10 06:20:17;;;;;;;9.95;6.72;;;;;;;;;;5049177;28;20025;-89
2022/03/10 06:22:44;;;;;;;10.90;6.55;;;;;;;;;;5050513;28;20043;-92
2022/03/10 06:25:10;;;;;;;10.52;6.63;;;;;;;;;;5048635;28;20102;-91
2022/03/10 06:27:36;;;;;;;12.90;6.75;;;;;;;;;;5049471;28;20431;-92
2022/03/10 06:30:03;;;;;;;10.23;6.50;;;;;;;;;;5048835;28;20385;-93
2022/03/10 06:32:32;;;;;;;12.25;6.80;;;;;;;;;;5049510;28;20032;-91
2022/03/10 06:35:05;;;;;;;12.00;6.93;;;;;;;;;;5054806;28;20377;-93
2022/03/10 06:37:34;;;;;;;10.15;6.72;;;;;;;;;;5054089;28;20056;-93
2022/03/10 06:40:32;;;;;;;12.85;7.10;;;;;;;;;;5053924;28;20017;-93
2022/03/10 06:43:00;;;;;;;;;;;;;;;;;;5052191;28;20025;-93
2022/03/10 06:45:26;;;;;;;;;;;;;;;;;;5062109;28;19905;-88
2022/03/10 06:47:52;;;;;;;17.17;7.20;;;;;;;;;;5076127;28;19909;-91
2022/03/10 06:50:19;;;;;;;13.20;7.50;;;;;;;;;;5076312;28;20040;-91
2022/03/10 06:52:45;;;;;;;12.60;7.13;;;;;;;;;;5069138;28;20033;-92
2022/03/10 06:55:11;;;;;;;12.38;6.93;;;;;;;;;;5057531;28;20496;-90
2022/03/10 06:57:37;;;;;;;10.25;6.90;;;;;;;;;;5052375;28;20025;-91
2022/03/10 07:00:11;;;;;;;9.93;7.50;;;;;;;;;;5052541;28;20040;-92
2022/03/10 07:02:40;;;;;;;13.65;7.88;;;;;;;;;;5052568;28;20385;-91
2022/03/10 07:05:36;;;;;;;12.63;7.45;;;;;;;;;;5052369;28;20041;-94
2022/03/10 07:20:53;;;;;;;8.95;7.40;;;;;;;;;;5216038;22;26347543;-93
2022/03/10 07:23:19;;;;;;;12.30;7.60;;;;;;;;;;6333434;22;20081;-88
2022/03/10 07:25:57;;;;;;;11.35;7.60;;;;;;;;;;6349308;22;20029;-92
2022/03/10 07:59:59;;;;;;;;;;;;;;;;;;;;;
2022/03/10 08:02:48;;;;;;;14.35;8.98;;;;;;;;;;5875769;24;20085;-93
2022/03/10 08:05:14;;;;;;;11.40;7.65;;;;;;;;;;5933162;24;20487;-91
2022/03/10 08:30:13;;;;;;;14.50;8.68;;;;;;;;;;5841193;24;20453;-91
2022/03/10 09:14:06;;;;;;;10.07;7.65;;;;;;;;;;6337369;21;1434606;-89
2022/03/10 09:29:47;;;;;;;11.85;8.40;;;;;;;;;;5797241;24;20476;-92
2022/03/10 10:19:52;;;;;;;;;;;;;;;;;;;;;
2022/03/10 10:44:51;;;;;;;18.00;10.52;;;;;;;;;;5816466;24;20041;-88
2022/03/10 11:00:05;;;;;;;17.48;10.02;;;;;;;;;;5793131;24;20452;-90
2022/03/10 11:02:37;;;;;;;21.75;11.30;;;;;;;;;;5746992;24;20023;-89
2022/03/10 11:05:03;;;;;;;19.83;10.55;;;;;;;;;;5870887;24;20008;-90
2022/03/10 11:07:32;;;;;;;20.25;11.02;;;;;;;;;;6005399;23;20041;-89
2022/03/10 11:09:58;;;;;;;20.20;11.07;;;;;;;;;;6216949;23;20004;-89
2022/03/10 11:12:25;;;;;;;22.13;11.27;;;;;;;;;;6217007;23;20004;-89
2022/03/10 11:14:51;;;;;;;28.65;11.70;;;;;;;;;;6216366;23;20008;-89
2022/03/10 11:17:18;;;;;;;18.63;11.65;;;;;;;;;;6216977;23;20178;-91
2022/03/10 11:19:49;;;;;;;21.70;11.30;;;;;;;;;;6217162;23;20004;-90
2022/03/10 11:22:19;;;;;;;21.45;11.80;;;;;;;;;;6216901;23;20351;-90
2022/03/10 11:24:54;;;;;;;18.38;11.48;;;;;;;;;;6216446;23;20402;-90
2022/03/10 11:27:24;;;;;;;18.38;10.30;;;;;;;;;;6216743;23;20011;-89
2022/03/10 11:29:53;;;;;;;24.25;11.68;;;;;;;;;;6216592;23;20008;-89
2022/03/10 11:32:25;;;;;;;20.63;10.82;;;;;;;;;;6216337;23;20027;-90
2022/03/10 11:34:55;;;;;;;20.05;11.15;;;;;;;;;;6216458;23;20531;-89
2022/03/10 11:37:35;;;;;;;21.35;11.55;;;;;;;;;;6216912;23;20023;-88
2022/03/10 11:40:01;;;;;;;19.27;10.50;;;;;;;;;;6216521;23;20004;-88
2022/03/10 11:42:29;;;;;;;19.15;11.50;;;;;;;;;;6217488;23;20035;-90
2022/03/10 11:45:14;;;;;;;21.85;10.68;;;;;;;;;;6217265;23;20079;-90
2022/03/10 11:47:40;;;;;;;26.27;11.60;;;;;;;;;;6216565;23;20027;-89
2022/03/10 11:50:24;;;;;;;22.13;11.48;;;;;;;;;;6216265;23;20436;-92
2022/03/10 11:52:55;;;;;;;20.52;12.35;;;;;;;;;;6216597;23;20008;-90
2022/03/10 11:55:22;;;;;;;25.27;12.00;;;;;;;;;;6216618;23;20458;-90
2022/03/10 11:57:54;;;;;;;17.90;11.73;;;;;;;;;;6216455;23;20369;-91
2022/03/10 12:00:24;;;;;;;23.92;12.00;;;;;;;;;;6216191;23;20004;-91
2022/03/10 12:03:01;;;;;;;21.77;11.48;;;;;;;;;;6216461;23;20019;-88
2022/03/10 12:05:47;;;;;;;21.55;12.05;;;;;;;;;;6217423;23;20014;-89
2022/03/10 12:08:17;;;;;;;23.77;11.70;;;;;;;;;;6216082;23;20046;-90
2022/03/10 12:10:44;;;;;;;20.48;12.10;;;;;;;;;;6216194;23;19996;-90
2022/03/10 12:13:39;;;;;;;25.40;12.18;;;;;;;;;;6218387;23;20007;-90
2022/03/10 12:16:06;;;;;;;23.95;11.88;;;;;;;;;;6184853;23;20455;-89
2022/03/10 12:18:38;;;;;;;25.40;11.98;;;;;;;;;;6216001;23;20062;-89
2022/03/10 12:21:16;;;;;;;20.42;11.82;;;;;;;;;;6216275;23;20012;-89
2022/03/10 12:23:51;;;;;;;23.25;11.45;;;;;;;;;;6215934;23;20016;-92
2022/03/10 12:26:24;;;;;;;22.42;11.52;;;;;;;;;;6216384;23;20138;-90
2022/03/10 12:28:51;;;;;;;18.15;11.57;;;;;;;;;;6215737;23;20004;-89
2022/03/10 12:31:21;;;;;;;16.88;10.93;;;;;;;;;;6216325;23;20535;-90
2022/03/10 12:33:47;;;;;;;15.98;10.30;;;;;;;;;;6215936;23;20004;-90
2022/03/10 12:36:16;;;;;;;16.38;10.13;;;;;;;;;;6216105;23;20008;-89
2022/03/10 12:38:44;;;;;;;16.85;9.82;;;;;;;;;;6216337;23;20000;-89
2022/03/10 12:41:10;;;;;;;15.30;9.60;;;;;;;;;;6213205;23;20008;-87
2022/03/10 12:43:41;;;;;;;16.02;9.27;;;;;;;;;;6218130;23;20012;-91
2022/03/10 12:46:07;;;;;;;12.85;8.50;;;;;;;;;;6219903;23;20004;-91
2022/03/10 12:58:44;;;;;;;9.52;7.20;;;;;;;;;;5837293;24;20015;-92
2022/03/10 13:04:05;;;;;;;9.07;6.32;;;;;;;;;;5815664;24;20015;-91
2022/03/10 13:07:01;;;;;;;9.18;5.65;;;;;;;;;;5832436;24;20355;-91
2022/03/10 13:09:26;;;;;;;8.40;5.85;;;;;;;;;;5903604;24;20013;-91
2022/03/10 13:21:45;;;;;;;;;;;;;;;;;;;;;
2022/03/10 13:24:35;;;;;;;5.28;4.00;;;;;;;;;;5846587;24;20103;-93
2022/03/10 13:30:18;;;;;;;;;;;;;;;;;;;;;
2022/03/10 13:32:50;;;;;;;4.47;3.78;;;;;;;;;;6241889;23;20075;-94
2022/03/10 13:35:27;;;;;;;4.70;3.92;;;;;;;;;;6215936;23;20012;-91
2022/03/10 13:40:53;;;;;;;;;;;;;;;;;;;;;
2022/03/10 13:43:21;;;;;;;4.60;3.38;;;;;;;;;;6120979;23;19984;-90
2022/03/10 13:46:10;;;;;;;3.73;3.30;;;;;;;;;;6168704;23;20083;-90
2022/03/10 13:48:43;;;;;;;3.28;2.80;;;;;;;;;;6216517;23;20219;-91
2022/03/10 13:51:09;;;;;;;5.30;2.70;;;;;;;;;;6217603;23;20103;-91
2022/03/10 13:53:35;;;;;;;2.85;2.33;;;;;;;;;;6218019;23;20008;-90
2022/03/10 13:56:01;;;;;;;2.97;2.08;;;;;;;;;;6218636;23;20444;-92
2022/03/10 13:58:27;;;;;;;3.63;2.10;;;;;;;;;;6217612;23;20065;-90
2022/03/10 14:01:07;;;;;;;3.03;2.40;;;;;;;;;;6217793;23;20424;-92
2022/03/10 14:03:38;;;;;;;2.90;2.22;;;;;;;;;;6218598;23;20035;-91
2022/03/10 14:06:25;;;;;;;3.92;1.95;;;;;;;;;;6218621;23;20000;-93
2022/03/10 14:08:52;;;;;;;2.20;2.00;;;;;;;;;;6217265;23;20051;-91
2022/03/10 14:11:19;;;;;;;3.47;2.10;;;;;;;;;;6217568;23;20000;-91
2022/03/10 14:17:32;;;;;;;;;;;;;;;;;;;;;
2022/03/10 14:20:17;;;;;;;;;;;;;;;;;;;;;
2022/03/10 14:22:44;;;;;;;3.38;2.00;;;;;;;;;;6244186;23;20103;-92
2022/03/10 14:25:10;;;;;;;2.40;1.90;;;;;;;;;;6217961;23;20009;-93
2022/03/10 14:27:46;;;;;;;2.20;2.00;;;;;;;;;;6217993;23;20008;-93
2022/03/10 14:30:32;;;;;;;2.13;1.80;;;;;;;;;;6216915;23;20004;-90
2022/03/10 14:32:58;;;;;;;3.60;1.77;;;;;;;;;;6217171;23;20504;-92
2022/03/10 14:35:31;;;;;;;2.95;2.40;;;;;;;;;;6217474;23;20008;-91
2022/03/10 14:38:28;;;;;;;;;;;;;;;;;;;;;
2022/03/10 14:41:17;;;;;;;2.58;1.90;;;;;;;;;;6244387;23;20499;-92
2022/03/10 14:43:43;;;;;;;3.67;2.10;;;;;;;;;;6068601;23;20022;-90
2022/03/10 14:46:09;;;;;;;3.05;2.28;;;;;;;;;;6196040;23;20008;-93
2022/03/10 14:48:39;;;;;;;3.63;2.10;;;;;;;;;;6217394;23;20063;-91
2022/03/10 14:51:34;;;;;;;2.90;2.40;;;;;;;;;;6217649;23;20004;-92
2022/03/10 14:53:52;;;;;;;3.15;2.13;;;;;;;;;;6236603;23;20075;-92
2022/03/10 14:56:21;;;;;;;5.35;2.50;;;;;;;;;;6217550;23;20004;-91
2022/03/10 14:58:49;;;;;;;3.15;2.13;;;;;;;;;;6216914;23;20000;-91
2022/03/10 15:01:19;;;;;;;3.00;2.13;;;;;;;;;;6217625;23;20000;-93
2022/03/10 15:03:45;;;;;;;4.38;2.80;;;;;;;;;;6216797;23;20042;-90
2022/03/10 15:06:24;;;;;;;;;;;;;;;;;;;;;
2022/03/10 15:11:54;;;;;;;2.92;2.00;;;;;;;;;;6222254;23;20431;-91
2022/03/10 15:14:25;;;;;;;5.97;3.83;;;;;;;;;;6217033;23;20087;-92
2022/03/10 15:16:51;;;;;;;3.80;2.80;;;;;;;;;;6216917;23;20444;-91
2022/03/10 15:19:17;;;;;;;5.10;2.55;;;;;;;;;;6217277;23;20496;-91
2022/03/10 15:21:44;;;;;;;5.22;2.70;;;;;;;;;;6216570;23;20087;-92
2022/03/10 15:24:10;;;;;;;2.65;2.20;;;;;;;;;;6215783;23;20061;-90
2022/03/10 15:26:39;;;;;;;2.45;2.03;;;;;;;;;;6217975;23;20000;-92
2022/03/10 15:29:39;;;;;;;;;;;;;;;;;;;;;
2022/03/10 15:35:15;;;;;;;2.17;1.83;;;;;;;;;;6148749;23;20033;-92
2022/03/10 15:37:42;;;;;;;4.05;2.15;;;;;;;;;;6128263;23;20466;-90
2022/03/10 15:40:13;;;;;;;3.58;2.08;;;;;;;;;;6176074;23;20055;-90
2022/03/10 15:42:57;;;;;;;;;;;;;;;;;;;;;
2022/03/10 15:45:24;;;;;;;4.65;2.13;;;;;;;;;;6242829;23;20091;-93
2022/03/10 15:47:59;;;;;;;3.28;2.13;;;;;;;;;;6216255;23;20439;-90
2022/03/10 15:50:25;;;;;;;5.00;2.47;;;;;;;;;;6216707;23;20035;-90
2022/03/10 15:53:15;;;;;;;4.28;2.50;;;;;;;;;;6219219;23;20383;-93
2022/03/10 15:56:20;;;;;;;;;;;;;;;;;;;;;
2022/03/10 15:58:47;;;;;;;4.18;2.67;;;;;;;;;;5979116;24;20064;-91
2022/03/10 16:01:40;;;;;;;3.80;2.28;;;;;;;;;;6190554;23;20007;-91
2022/03/10 16:04:55;;;;;;;;;;;;;;;;;;;;;
2022/03/10 16:07:36;;;;;;;4.03;1.92;;;;;;;;;;6239781;23;20432;-91
2022/03/10 16:10:18;;;;;;;;;;;;;;;;;;;;;
2022/03/10 16:13:13;;;;;;;1.60;1.50;;;;;;;;;;6242958;23;20519;-92
2022/03/10 16:16:10;;;;;;;;;;;;;;;;;;;;;
2022/03/10 16:19:06;;;;;;;;;;;;;;;;;;;;;
2022/03/10 16:40:31;;;;;;;3.58;1.80;;;;;;;;;;5827142;24;20038;-92
2022/03/10 16:42:57;;;;;;;3.55;1.90;;;;;;;;;;5925492;24;20012;-90
2022/03/10 16:45:23;;;;;;;3.35;2.10;;;;;;;;;;6100162;23;20004;-92
2022/03/10 16:47:51;;;;;;;5.35;2.08;;;;;;;;;;6215825;23;20039;-92
2022/03/10 16:50:46;;;;;;;3.40;2.40;;;;;;;;;;6216901;23;20004;-90
2022/03/10 16:53:22;;;;;;;5.22;3.58;;;;;;;;;;6223779;23;20020;-95
2022/03/10 16:56:17;;;;;;;7.80;5.15;;;;;;;;;;6244369;22;20070;-91
2022/03/10 17:02:08;;;;;;;8.45;5.10;;;;;;;;;;6221499;23;20436;-92
2022/03/10 17:04:38;;;;;;;13.23;4.60;;;;;;;;;;6235806;23;20160;-91
2022/03/10 17:07:05;;;;;;;9.93;4.90;;;;;;;;;;6215541;23;20004;-91
2022/03/10 17:12:42;;;;;;;11.70;5.00;;;;;;;;;;6226330;23;20305;-92
2022/03/10 17:28:33;;;;;;;6.60;4.00;;;;;;;;;;5869786;24;20017;-93
2022/03/10 17:34:14;;;;;;;8.95;4.22;;;;;;;;;;5864657;24;20017;-91
2022/03/10 17:37:17;;;;;;;5.63;4.22;;;;;;;;;;5911036;24;20088;-92
2022/03/10 17:39:44;;;;;;;9.48;4.63;;;;;;;;;;6015784;23;20065;-91
2022/03/10 17:42:11;;;;;;;7.22;4.13;;;;;;;;;;6070581;23;20018;-90
2022/03/10 18:39:30;;;;;;;;;;;;;;;;;;;;;
2022/03/10 19:48:04;;;;;;;11.45;8.50;;;;;;;;;;6158714;23;20469;-87
2022/03/10 19:50:30;;;;;;;14.25;9.25;;;;;;;;;;6159435;23;20011;-86
2022/03/10 19:52:58;;;;;;;11.40;7.85;;;;;;;;;;6133211;23;20184;-87
2022/03/10 19:55:24;;;;;;;13.10;8.40;;;;;;;;;;6132639;23;20009;-87
2022/03/10 19:57:51;;;;;;;12.80;8.23;;;;;;;;;;6132748;23;20012;-87
2022/03/10 20:00:18;;;;;;;15.00;9.50;;;;;;;;;;6159570;23;20020;-87
2022/03/10 20:02:45;;;;;;;15.68;10.73;;;;;;;;;;6157912;23;20008;-87
2022/03/10 20:05:11;;;;;;;19.42;11.35;;;;;;;;;;6132069;23;20017;-87
2022/03/10 20:07:37;;;;;;;12.50;9.70;;;;;;;;;;6158587;23;20374;-88
2022/03/10 20:10:04;;;;;;;17.30;11.57;;;;;;;;;;6159100;23;20036;-89
2022/03/10 20:12:32;;;;;;;19.40;11.65;;;;;;;;;;6133495;23;20010;-90
2022/03/10 20:14:59;;;;;;;19.15;11.45;;;;;;;;;;6159202;23;20044;-90
2022/03/10 20:17:27;;;;;;;24.73;15.88;;;;;;;;;;6134286;23;20060;-90
2022/03/10 20:19:53;;;;;;;20.05;15.10;;;;;;;;;;6158921;23;20433;-90
2022/03/10 20:22:19;;;;;;;23.55;14.80;;;;;;;;;;6133418;23;20016;-88
2022/03/10 20:24:46;;;;;;;17.90;12.48;;;;;;;;;;6159377;23;20001;-89
2022/03/10 20:27:12;;;;;;;20.95;13.65;;;;;;;;;;6132837;23;20017;-89
2022/03/10 20:29:38;;;;;;;21.80;13.18;;;;;;;;;;6158852;23;20001;-89
2022/03/10 20:32:08;;;;;;;15.32;10.93;;;;;;;;;;6130258;23;20009;-87
2022/03/10 20:34:34;;;;;;;14.52;9.27;;;;;;;;;;6152748;23;20001;-87
2022/03/10 20:37:01;;;;;;;16.40;10.35;;;;;;;;;;6126620;23;20005;-87
2022/03/10 20:39:27;;;;;;;18.23;10.40;;;;;;;;;;6126718;23;20029;-86
2022/03/10 20:41:53;;;;;;;12.32;8.93;;;;;;;;;;6152596;23;20092;-88
2022/03/10 20:44:19;;;;;;;13.75;9.15;;;;;;;;;;6128209;23;20001;-89
2022/03/10 20:46:45;;;;;;;14.27;8.93;;;;;;;;;;6152885;23;20017;-89
2022/03/10 20:49:12;;;;;;;12.80;8.65;;;;;;;;;;6152757;23;20002;-88
2022/03/10 20:51:38;;;;;;;12.13;8.73;;;;;;;;;;6126610;23;20012;-89
2022/03/10 20:54:05;;;;;;;12.55;8.60;;;;;;;;;;6153192;23;20517;-88
2022/03/10 20:56:31;;;;;;;13.98;8.73;;;;;;;;;;6127077;23;20001;-89
2022/03/10 20:58:57;;;;;;;12.57;8.63;;;;;;;;;;6127082;23;20005;-87
2022/03/10 21:01:23;;;;;;;13.68;8.10;;;;;;;;;;6127036;23;20018;-90
2022/03/10 21:03:50;;;;;;;18.08;10.32;;;;;;;;;;6127890;23;20005;-88
2022/03/10 21:06:17;;;;;;;16.38;10.10;;;;;;;;;;6126470;23;20009;-88
2022/03/10 21:08:43;;;;;;;15.88;9.60;;;;;;;;;;6126840;23;20582;-87
2022/03/10 21:11:10;;;;;;;18.80;11.23;;;;;;;;;;6152475;23;20005;-88
2022/03/10 21:13:36;;;;;;;16.10;10.70;;;;;;;;;;6152439;23;20044;-87
2022/03/10 21:16:02;;;;;;;19.38;11.68;;;;;;;;;;6152422;23;20001;-88
2022/03/10 21:18:28;;;;;;;18.10;10.40;;;;;;;;;;6126372;23;20013;-87
2022/03/10 21:20:54;;;;;;;21.95;12.13;;;;;;;;;;6126162;23;20017;-88
2022/03/10 21:23:20;;;;;;;16.83;10.30;;;;;;;;;;6127653;23;20009;-88
2022/03/10 21:25:46;;;;;;;22.70;12.48;;;;;;;;;;6126707;23;20006;-88
2022/03/10 21:28:12;;;;;;;17.55;11.05;;;;;;;;;;6126436;23;20008;-88
2022/03/10 21:30:39;;;;;;;24.25;11.35;;;;;;;;;;6126521;23;20438;-90
2022/03/10 21:33:05;;;;;;;17.15;10.38;;;;;;;;;;6126355;23;20056;-88
2022/03/10 21:35:32;;;;;;;14.52;9.18;;;;;;;;;;6126162;23;20052;-88
2022/03/10 21:37:58;;;;;;;20.73;10.77;;;;;;;;;;6152067;23;20001;-88
2022/03/10 21:40:24;;;;;;;22.67;10.38;;;;;;;;;;6127067;23;20438;-87
2022/03/10 21:42:52;;;;;;;14.52;8.15;;;;;;;;;;6126889;23;20339;-87
2022/03/10 21:45:18;;;;;;;12.13;8.25;;;;;;;;;;6125534;23;20010;-87
2022/03/10 21:47:44;;;;;;;12.05;8.05;;;;;;;;;;6147195;23;20322;-88
2022/03/10 21:50:11;;;;;;;12.35;7.43;;;;;;;;;;6152382;23;20021;-88
2022/03/10 21:52:37;;;;;;;13.90;7.90;;;;;;;;;;6152290;23;20006;-87
2022/03/10 21:55:04;;;;;;;10.25;7.28;;;;;;;;;;6126186;23;20006;-87